Time;durP1;ratioP1;P1;durP2;ratioP2;P2;SDS_P1;SDS_P2;PMS_P1;PMS_P2;Temp;Humidity;BMP_temperature;BMP_pressure;BME280_temperature;BME280_humidity;BME280_pressure;Samples;Min_cycle;Max_cycle;Signal;HPM_P1;HPM_P2
2021/05/31 00:02:08;;;;;;;4.25;3.03;;;;;;;;;;4995888;28;20073;-83
2021/05/31 00:04:34;;;;;;;4.40;3.30;;;;;;;;;;4994339;28;20030;-83
2021/05/31 00:07:04;;;;;;;3.58;2.80;;;;;;;;;;4994436;28;20031;-83
2021/05/31 00:09:30;;;;;;;5.60;3.65;;;;;;;;;;4993087;28;20025;-83
2021/05/31 00:11:55;;;;;;;5.82;3.35;;;;;;;;;;4992521;28;20042;-83
2021/05/31 00:14:21;;;;;;;4.10;2.67;;;;;;;;;;4977683;28;20069;-83
2021/05/31 00:16:46;;;;;;;4.45;2.85;;;;;;;;;;4994188;28;20065;-83
2021/05/31 00:19:13;;;;;;;4.82;2.88;;;;;;;;;;4994339;28;20042;-83
2021/05/31 00:21:39;;;;;;;4.72;2.97;;;;;;;;;;4977926;28;20030;-83
2021/05/31 00:24:05;;;;;;;3.80;2.80;;;;;;;;;;4993932;28;20045;-83
2021/05/31 00:26:30;;;;;;;3.45;2.60;;;;;;;;;;4977342;28;20062;-83
2021/05/31 00:28:55;;;;;;;4.78;2.90;;;;;;;;;;4993601;28;20033;-83
2021/05/31 00:31:21;;;;;;;4.28;2.80;;;;;;;;;;5006877;28;20039;-83
2021/05/31 00:33:46;;;;;;;4.15;2.75;;;;;;;;;;5006923;28;20035;-83
2021/05/31 00:36:12;;;;;;;4.05;2.88;;;;;;;;;;4991301;28;20038;-83
2021/05/31 00:38:39;;;;;;;4.63;2.70;;;;;;;;;;4990252;28;20030;-83
2021/05/31 00:41:05;;;;;;;3.90;2.80;;;;;;;;;;5022497;28;20551;-84
2021/05/31 00:43:33;;;;;;;4.20;2.85;;;;;;;;;;4990134;28;20027;-83
2021/05/31 00:46:03;;;;;;;4.25;2.40;;;;;;;;;;5022105;28;20505;-83
2021/05/31 00:48:29;;;;;;;5.00;2.30;;;;;;;;;;4993299;28;20028;-83
2021/05/31 00:50:56;;;;;;;3.38;2.53;;;;;;;;;;4977348;28;20026;-83
2021/05/31 00:53:22;;;;;;;5.05;2.83;;;;;;;;;;5010056;28;20038;-83
2021/05/31 00:55:47;;;;;;;3.00;2.28;;;;;;;;;;4973812;28;20033;-83
2021/05/31 00:58:13;;;;;;;3.05;2.45;;;;;;;;;;4990932;28;20035;-82
2021/05/31 01:00:39;;;;;;;4.57;3.00;;;;;;;;;;4993448;28;20042;-82
2021/05/31 01:03:04;;;;;;;3.50;2.42;;;;;;;;;;5011326;28;20033;-83
2021/05/31 01:05:30;;;;;;;3.10;2.40;;;;;;;;;;4996145;28;20086;-83
2021/05/31 01:07:58;;;;;;;3.50;2.30;;;;;;;;;;4992759;28;20396;-83
2021/05/31 01:10:49;;;;;;;3.30;2.40;;;;;;;;;;4973552;28;20037;-83
2021/05/31 01:13:22;;;;;;;3.47;2.63;;;;;;;;;;4973885;28;20034;-82
2021/05/31 01:15:49;;;;;;;;;;;;;;;;;;4963513;28;20493;-83
2021/05/31 01:18:48;;;;;;;3.95;2.35;;;;;;;;;;4989746;28;19996;-83
2021/05/31 01:21:24;;;;;;;4.50;2.40;;;;;;;;;;4964270;28;20039;-82
2021/05/31 01:24:31;;;;;;;4.25;2.20;;;;;;;;;;4976518;28;20066;-83
2021/05/31 01:27:23;;;;;;;2.97;2.30;;;;;;;;;;5009397;28;20440;-83
2021/05/31 01:30:04;;;;;;;3.03;2.10;;;;;;;;;;4990053;28;20105;-83
2021/05/31 01:33:02;;;;;;;4.10;2.45;;;;;;;;;;4992478;28;20058;-82
2021/05/31 01:35:28;;;;;;;2.80;2.00;;;;;;;;;;4981384;28;20061;-83
2021/05/31 01:37:55;;;;;;;4.15;2.38;;;;;;;;;;4992510;28;20037;-83
2021/05/31 01:40:22;;;;;;;3.42;2.33;;;;;;;;;;5004677;28;20037;-83
2021/05/31 01:42:50;;;;;;;3.58;2.35;;;;;;;;;;5005762;28;20043;-83
2021/05/31 01:45:15;;;;;;;3.17;2.55;;;;;;;;;;4989555;28;20041;-82
2021/05/31 01:47:41;;;;;;;3.65;2.15;;;;;;;;;;5003100;28;20542;-83
2021/05/31 01:50:07;;;;;;;3.75;2.65;;;;;;;;;;5008962;28;20141;-83
2021/05/31 01:52:33;;;;;;;3.22;2.45;;;;;;;;;;4975782;28;20121;-83
2021/05/31 01:54:58;;;;;;;3.70;2.25;;;;;;;;;;4980853;28;20030;-82
2021/05/31 01:57:24;;;;;;;2.60;1.90;;;;;;;;;;4995521;28;20113;-83
2021/05/31 01:59:50;;;;;;;3.20;2.30;;;;;;;;;;4988531;28;20057;-83
2021/05/31 02:02:16;;;;;;;3.00;2.05;;;;;;;;;;4976306;28;20096;-83
2021/05/31 02:04:41;;;;;;;3.22;2.17;;;;;;;;;;4980038;28;20428;-83
2021/05/31 02:07:07;;;;;;;3.90;2.50;;;;;;;;;;4975941;28;20030;-83
2021/05/31 02:09:32;;;;;;;3.42;2.85;;;;;;;;;;5004758;28;20069;-83
2021/05/31 02:12:04;;;;;;;4.18;2.40;;;;;;;;;;5005438;28;20030;-83
2021/05/31 02:14:37;;;;;;;4.47;2.40;;;;;;;;;;4972715;28;20114;-84
2021/05/31 02:17:37;;;;;;;3.22;2.20;;;;;;;;;;5006474;28;20054;-82
2021/05/31 02:20:10;;;;;;;2.75;2.10;;;;;;;;;;5005243;28;20123;-83
2021/05/31 02:22:38;;;;;;;4.13;2.10;;;;;;;;;;4988330;28;20031;-83
2021/05/31 02:25:04;;;;;;;2.78;2.28;;;;;;;;;;4988891;28;20050;-83
2021/05/31 02:27:29;;;;;;;3.00;2.13;;;;;;;;;;4988438;28;20489;-83
2021/05/31 02:29:55;;;;;;;3.30;2.10;;;;;;;;;;5013998;28;20046;-83
2021/05/31 02:32:21;;;;;;;3.35;2.35;;;;;;;;;;4975171;28;20054;-82
2021/05/31 02:34:47;;;;;;;3.30;2.50;;;;;;;;;;4994701;28;20034;-83
2021/05/31 02:37:13;;;;;;;2.67;1.95;;;;;;;;;;4991616;28;20043;-83
2021/05/31 02:39:38;;;;;;;4.28;2.67;;;;;;;;;;4972009;28;20035;-83
2021/05/31 02:42:05;;;;;;;4.55;2.35;;;;;;;;;;4983195;28;20099;-83
2021/05/31 02:44:30;;;;;;;4.25;2.42;;;;;;;;;;4978295;28;20026;-82
2021/05/31 02:46:56;;;;;;;4.07;2.60;;;;;;;;;;4995095;28;20026;-83
2021/05/31 02:49:21;;;;;;;3.13;2.40;;;;;;;;;;4982575;28;20215;-83
2021/05/31 02:51:47;;;;;;;3.80;2.38;;;;;;;;;;4975244;28;20053;-83
2021/05/31 02:54:13;;;;;;;3.33;2.40;;;;;;;;;;4974944;28;20061;-82
2021/05/31 02:56:39;;;;;;;3.22;2.20;;;;;;;;;;4978184;28;20113;-82
2021/05/31 02:59:04;;;;;;;3.22;2.50;;;;;;;;;;4977815;28;20501;-82
2021/05/31 03:01:30;;;;;;;4.30;2.33;;;;;;;;;;4975151;28;20069;-83
2021/05/31 03:03:56;;;;;;;3.28;2.60;;;;;;;;;;4990841;28;20061;-82
2021/05/31 03:06:22;;;;;;;4.57;2.53;;;;;;;;;;4975189;28;20022;-83
2021/05/31 03:08:47;;;;;;;3.38;2.35;;;;;;;;;;4974726;28;20177;-83
2021/05/31 03:11:13;;;;;;;4.40;2.42;;;;;;;;;;5004102;28;20030;-83
2021/05/31 03:13:38;;;;;;;4.93;2.67;;;;;;;;;;4987659;28;20045;-83
2021/05/31 03:16:04;;;;;;;3.72;2.30;;;;;;;;;;4971953;28;20101;-83
2021/05/31 03:18:29;;;;;;;3.30;2.22;;;;;;;;;;4982809;28;20038;-82
2021/05/31 03:20:56;;;;;;;3.38;2.42;;;;;;;;;;4990836;28;20121;-83
2021/05/31 03:23:21;;;;;;;4.30;2.75;;;;;;;;;;4974293;28;20037;-83
2021/05/31 03:25:46;;;;;;;3.50;2.33;;;;;;;;;;4990932;28;20026;-83
2021/05/31 03:28:12;;;;;;;4.18;2.95;;;;;;;;;;4986919;28;20105;-83
2021/05/31 03:30:37;;;;;;;3.85;2.67;;;;;;;;;;4965671;28;20062;-83
2021/05/31 03:33:04;;;;;;;3.38;2.40;;;;;;;;;;4971363;28;20041;-83
2021/05/31 03:35:30;;;;;;;3.00;2.25;;;;;;;;;;4987952;28;20027;-83
2021/05/31 03:37:55;;;;;;;3.80;2.70;;;;;;;;;;4971571;28;20055;-83
2021/05/31 03:40:23;;;;;;;3.08;2.55;;;;;;;;;;4986474;28;20049;-83
2021/05/31 03:42:52;;;;;;;3.65;2.50;;;;;;;;;;4991013;28;20031;-83
2021/05/31 03:45:18;;;;;;;3.45;2.38;;;;;;;;;;4974830;28;20550;-83
2021/05/31 03:47:43;;;;;;;3.13;2.20;;;;;;;;;;4974470;28;20038;-83
2021/05/31 03:50:09;;;;;;;3.42;2.38;;;;;;;;;;4974589;28;20031;-83
2021/05/31 03:52:36;;;;;;;2.83;2.17;;;;;;;;;;5006680;28;20503;-83
2021/05/31 03:55:05;;;;;;;3.45;2.10;;;;;;;;;;4978944;28;20026;-83
2021/05/31 03:57:31;;;;;;;3.13;2.30;;;;;;;;;;4974850;28;20464;-84
2021/05/31 03:59:56;;;;;;;3.70;2.40;;;;;;;;;;4974517;28;20035;-83
2021/05/31 04:02:22;;;;;;;3.55;2.40;;;;;;;;;;4990459;28;20552;-84
2021/05/31 04:04:52;;;;;;;3.65;2.47;;;;;;;;;;4974249;28;20026;-83
2021/05/31 04:12:45;;;;;;;3.90;2.65;;;;;;;;;;4990503;28;20481;-83
2021/05/31 04:15:11;;;;;;;4.35;2.78;;;;;;;;;;4974196;28;20026;-83
2021/05/31 04:17:37;;;;;;;3.03;2.40;;;;;;;;;;4990687;28;20034;-83
2021/05/31 04:20:03;;;;;;;3.50;2.40;;;;;;;;;;4990872;28;20030;-83
2021/05/31 04:22:29;;;;;;;3.97;2.53;;;;;;;;;;4989520;28;20042;-82
2021/05/31 04:24:54;;;;;;;4.75;2.60;;;;;;;;;;5006957;28;20039;-81
2021/05/31 04:27:20;;;;;;;3.45;2.70;;;;;;;;;;4990377;28;20026;-80
2021/05/31 04:29:45;;;;;;;3.92;2.30;;;;;;;;;;5002927;28;20038;-80
2021/05/31 04:32:11;;;;;;;5.20;2.78;;;;;;;;;;5008030;28;20030;-80
2021/05/31 04:34:36;;;;;;;3.45;2.22;;;;;;;;;;5027249;28;20066;-81
2021/05/31 04:37:02;;;;;;;4.30;2.60;;;;;;;;;;5024699;28;20048;-80
2021/05/31 04:39:28;;;;;;;5.72;2.67;;;;;;;;;;5001769;28;20058;-80
2021/05/31 04:41:53;;;;;;;3.15;2.30;;;;;;;;;;4989578;28;20039;-80
2021/05/31 04:44:19;;;;;;;3.55;2.40;;;;;;;;;;5006378;28;20053;-80
2021/05/31 04:46:44;;;;;;;3.22;2.28;;;;;;;;;;4990627;28;20035;-79
2021/05/31 04:49:10;;;;;;;4.78;2.60;;;;;;;;;;4990415;28;20415;-78
2021/05/31 04:51:37;;;;;;;5.20;2.10;;;;;;;;;;4988838;28;20401;-77
2021/05/31 04:54:03;;;;;;;7.07;2.30;;;;;;;;;;5028704;28;20034;-78
2021/05/31 04:56:28;;;;;;;4.75;2.40;;;;;;;;;;5012882;28;20037;-77
2021/05/31 04:58:54;;;;;;;5.50;2.13;;;;;;;;;;5012793;28;20377;-78
2021/05/31 05:01:20;;;;;;;6.72;3.00;;;;;;;;;;4996630;28;20038;-77
2021/05/31 05:03:45;;;;;;;4.78;2.58;;;;;;;;;;5012829;28;20113;-77
2021/05/31 05:06:11;;;;;;;5.80;2.83;;;;;;;;;;4993309;28;20485;-77
2021/05/31 05:08:36;;;;;;;7.90;2.40;;;;;;;;;;4998763;28;20040;-78
2021/05/31 05:11:02;;;;;;;4.97;2.47;;;;;;;;;;5012662;28;20050;-77
2021/05/31 05:13:29;;;;;;;5.65;2.20;;;;;;;;;;5012840;28;20034;-78
2021/05/31 05:15:54;;;;;;;4.68;2.40;;;;;;;;;;4983566;28;20039;-77
2021/05/31 05:18:20;;;;;;;3.75;2.30;;;;;;;;;;4993188;28;20023;-77
2021/05/31 05:20:45;;;;;;;4.63;2.40;;;;;;;;;;4993222;28;20034;-79
2021/05/31 05:23:11;;;;;;;5.13;2.50;;;;;;;;;;4976622;28;20038;-79
2021/05/31 05:25:36;;;;;;;4.95;2.95;;;;;;;;;;4976923;28;20034;-80
2021/05/31 05:28:02;;;;;;;7.07;3.60;;;;;;;;;;4986458;28;20045;-80
2021/05/31 05:30:29;;;;;;;94.07;80.25;;;;;;;;;;4992446;28;20031;-80
2021/05/31 05:32:59;;;;;;;421.42;363.88;;;;;;;;;;5008936;28;20081;-80
2021/05/31 05:35:28;;;;;;;586.03;522.55;;;;;;;;;;5009032;28;20035;-80
2021/05/31 05:38:07;;;;;;;103.88;93.05;;;;;;;;;;4993087;28;20030;-80
2021/05/31 05:48:36;;;;;;;6.93;4.72;;;;;;;;;;4957616;28;20459;-80
2021/05/31 05:51:05;;;;;;;6.47;5.18;;;;;;;;;;4992224;28;20053;-80
2021/05/31 05:53:41;;;;;;;6.30;3.85;;;;;;;;;;4992880;28;20477;-80
2021/05/31 05:56:08;;;;;;;8.07;4.18;;;;;;;;;;4975878;28;20058;-80
2021/05/31 05:58:34;;;;;;;5.05;3.70;;;;;;;;;;4991769;28;20471;-80
2021/05/31 06:01:00;;;;;;;7.95;4.95;;;;;;;;;;4998648;28;20053;-79
2021/05/31 06:03:25;;;;;;;6.10;4.32;;;;;;;;;;4987328;28;20037;-80
2021/05/31 06:05:51;;;;;;;5.38;4.18;;;;;;;;;;4989509;28;20038;-80
2021/05/31 06:08:16;;;;;;;5.72;3.88;;;;;;;;;;4992175;28;20056;-80
2021/05/31 06:10:42;;;;;;;5.32;4.10;;;;;;;;;;4990754;28;20153;-80
2021/05/31 06:13:08;;;;;;;10.90;3.90;;;;;;;;;;4991732;28;20026;-81
2021/05/31 06:15:33;;;;;;;7.03;3.95;;;;;;;;;;4992064;28;20027;-81
2021/05/31 06:17:59;;;;;;;5.82;3.97;;;;;;;;;;4972233;28;20065;-81
2021/05/31 06:20:24;;;;;;;8.25;4.88;;;;;;;;;;4988916;28;20038;-82
2021/05/31 06:22:50;;;;;;;6.10;4.22;;;;;;;;;;4960244;28;20049;-80
2021/05/31 06:25:16;;;;;;;6.10;4.00;;;;;;;;;;4988489;28;20035;-80
2021/05/31 06:27:41;;;;;;;6.00;3.80;;;;;;;;;;5001752;28;20061;-78
2021/05/31 06:30:07;;;;;;;6.93;4.75;;;;;;;;;;5017742;28;20101;-82
2021/05/31 06:32:33;;;;;;;4.93;4.05;;;;;;;;;;5008021;28;20112;-81
2021/05/31 06:34:58;;;;;;;6.93;4.65;;;;;;;;;;5007828;28;20042;-84
2021/05/31 06:37:24;;;;;;;9.20;4.43;;;;;;;;;;4974842;28;20485;-84
2021/05/31 06:40:17;;;;;;;10.13;4.53;;;;;;;;;;4987784;28;20027;-85
2021/05/31 06:43:22;;;;;;;9.57;4.35;;;;;;;;;;4987615;28;20449;-86
2021/05/31 06:45:58;;;;;;;7.95;4.15;;;;;;;;;;5006140;28;20053;-86
2021/05/31 06:48:39;;;;;;;7.05;4.82;;;;;;;;;;4972017;28;20030;-84
2021/05/31 06:51:20;;;;;;;7.57;4.05;;;;;;;;;;4971137;28;20887;-84
2021/05/31 06:53:52;;;;;;;10.73;5.50;;;;;;;;;;4975215;28;20027;-85
2021/05/31 06:56:19;;;;;;;8.00;4.35;;;;;;;;;;4968639;28;20038;-85
2021/05/31 06:58:46;;;;;;;8.48;4.07;;;;;;;;;;4974709;28;20034;-85
2021/05/31 07:01:11;;;;;;;6.53;4.22;;;;;;;;;;5007290;28;20037;-85
2021/05/31 07:03:37;;;;;;;6.63;4.45;;;;;;;;;;4991001;28;20030;-85
2021/05/31 07:06:06;;;;;;;9.95;4.85;;;;;;;;;;5007011;28;20552;-85
2021/05/31 07:08:32;;;;;;;7.60;5.32;;;;;;;;;;4991039;28;20121;-82
2021/05/31 07:10:59;;;;;;;9.50;4.95;;;;;;;;;;4974530;28;20046;-82
2021/05/31 07:13:26;;;;;;;9.70;4.97;;;;;;;;;;4991033;28;20030;-82
2021/05/31 07:15:52;;;;;;;6.38;4.90;;;;;;;;;;4974783;28;20492;-82
2021/05/31 07:18:19;;;;;;;6.43;4.18;;;;;;;;;;4974799;28;20026;-81
2021/05/31 07:20:46;;;;;;;6.95;3.58;;;;;;;;;;5007045;28;20074;-81
2021/05/31 07:23:11;;;;;;;6.55;3.35;;;;;;;;;;5004651;28;20562;-82
2021/05/31 07:25:37;;;;;;;6.72;3.58;;;;;;;;;;4974048;28;20034;-83
2021/05/31 07:28:02;;;;;;;8.00;3.67;;;;;;;;;;5003970;28;20415;-80
2021/05/31 07:30:29;;;;;;;7.15;3.30;;;;;;;;;;4981738;28;20502;-83
2021/05/31 07:32:55;;;;;;;6.03;3.45;;;;;;;;;;4990858;28;20026;-83
2021/05/31 07:35:23;;;;;;;7.55;3.20;;;;;;;;;;4994687;28;20033;-83
2021/05/31 07:37:48;;;;;;;12.02;5.82;;;;;;;;;;4994403;28;20614;-85
2021/05/31 07:40:15;;;;;;;9.75;5.20;;;;;;;;;;5011119;28;20066;-83
2021/05/31 07:42:42;;;;;;;11.25;4.88;;;;;;;;;;4994124;28;20117;-83
2021/05/31 07:45:10;;;;;;;12.43;4.97;;;;;;;;;;4994620;28;20033;-83
2021/05/31 07:47:35;;;;;;;9.48;4.03;;;;;;;;;;4994738;28;20507;-84
2021/05/31 07:50:01;;;;;;;9.23;3.60;;;;;;;;;;4958323;28;20169;-85
2021/05/31 07:52:28;;;;;;;3.45;2.13;;;;;;;;;;4959024;28;20046;-84
2021/05/31 07:54:54;;;;;;;4.75;2.35;;;;;;;;;;4978983;28;20468;-84
2021/05/31 07:57:21;;;;;;;4.30;2.42;;;;;;;;;;4995754;28;20129;-84
2021/05/31 07:59:47;;;;;;;5.35;2.33;;;;;;;;;;4974579;28;20168;-80
2021/05/31 08:02:12;;;;;;;3.20;2.10;;;;;;;;;;4990661;28;20050;-83
2021/05/31 08:04:38;;;;;;;4.03;2.00;;;;;;;;;;4990449;28;20069;-82
2021/05/31 08:07:04;;;;;;;4.00;2.17;;;;;;;;;;4982155;28;20110;-84
2021/05/31 08:09:29;;;;;;;4.80;2.28;;;;;;;;;;4990420;28;20038;-80
2021/05/31 08:11:58;;;;;;;5.35;2.17;;;;;;;;;;4994670;28;20030;-78
2021/05/31 08:14:24;;;;;;;3.63;2.45;;;;;;;;;;4995128;28;20050;-78
2021/05/31 08:16:49;;;;;;;6.07;4.82;;;;;;;;;;4997706;28;20076;-78
2021/05/31 08:19:16;;;;;;;5.80;3.10;;;;;;;;;;4997045;28;20029;-77
2021/05/31 08:21:43;;;;;;;6.65;3.78;;;;;;;;;;5012669;28;20088;-78
2021/05/31 08:24:08;;;;;;;4.18;2.72;;;;;;;;;;5013640;28;20045;-77
2021/05/31 08:26:36;;;;;;;4.00;2.40;;;;;;;;;;4997150;28;20492;-77
2021/05/31 08:29:02;;;;;;;7.88;3.00;;;;;;;;;;5012903;28;20046;-77
2021/05/31 08:31:27;;;;;;;4.93;2.40;;;;;;;;;;5010368;28;20536;-77
2021/05/31 08:33:53;;;;;;;4.53;2.60;;;;;;;;;;5010414;28;20038;-77
2021/05/31 08:36:20;;;;;;;7.00;2.90;;;;;;;;;;5026700;28;20038;-78
2021/05/31 08:38:46;;;;;;;3.33;2.20;;;;;;;;;;5025802;28;20550;-76
2021/05/31 08:41:11;;;;;;;3.13;1.95;;;;;;;;;;4993903;28;20105;-77
2021/05/31 08:43:37;;;;;;;4.47;2.80;;;;;;;;;;4989274;28;20295;-76
2021/05/31 08:46:02;;;;;;;5.47;2.45;;;;;;;;;;4990746;28;20049;-76
2021/05/31 08:48:28;;;;;;;4.07;2.55;;;;;;;;;;5000449;28;20034;-76
2021/05/31 08:50:54;;;;;;;4.78;2.40;;;;;;;;;;5010228;28;20484;-76
2021/05/31 08:53:20;;;;;;;4.97;2.47;;;;;;;;;;5009481;28;20031;-76
2021/05/31 08:55:45;;;;;;;3.95;2.30;;;;;;;;;;4990699;28;20026;-84
2021/05/31 08:58:11;;;;;;;6.32;4.75;;;;;;;;;;4990970;28;20367;-83
2021/05/31 09:00:36;;;;;;;8.43;4.45;;;;;;;;;;4993738;28;20018;-79
2021/05/31 09:03:04;;;;;;;8.07;5.72;;;;;;;;;;5022472;28;20130;-78
2021/05/31 09:05:31;;;;;;;6.50;4.43;;;;;;;;;;5004282;28;20026;-77
2021/05/31 09:08:00;;;;;;;6.90;3.67;;;;;;;;;;5009351;28;20038;-76
2021/05/31 09:10:26;;;;;;;5.15;3.33;;;;;;;;;;4981037;28;20049;-76
2021/05/31 09:12:51;;;;;;;4.95;2.20;;;;;;;;;;5009412;28;20030;-77
2021/05/31 09:15:17;;;;;;;3.80;2.88;;;;;;;;;;4993154;28;20439;-77
2021/05/31 09:17:43;;;;;;;6.05;3.22;;;;;;;;;;4976223;28;20039;-78
2021/05/31 09:20:09;;;;;;;5.85;2.50;;;;;;;;;;4992930;28;20038;-77
2021/05/31 09:22:48;;;;;;;3.88;2.75;;;;;;;;;;5009010;28;20030;-77
2021/05/31 09:25:45;;;;;;;4.18;2.30;;;;;;;;;;5008778;28;20057;-77
2021/05/31 09:28:12;;;;;;;4.45;2.40;;;;;;;;;;4987556;28;20054;-77
2021/05/31 09:30:41;;;;;;;3.85;2.15;;;;;;;;;;4978872;28;20034;-76
2021/05/31 09:33:07;;;;;;;3.40;2.20;;;;;;;;;;4991425;28;20034;-77
2021/05/31 09:35:33;;;;;;;6.47;2.47;;;;;;;;;;4989250;28;20045;-78
2021/05/31 09:38:02;;;;;;;3.45;2.40;;;;;;;;;;5006340;28;20043;-79
2021/05/31 09:40:27;;;;;;;3.67;2.33;;;;;;;;;;5005467;28;20086;-78
2021/05/31 09:43:17;;;;;;;4.82;2.75;;;;;;;;;;5023393;28;20109;-80
2021/05/31 09:45:51;;;;;;;8.43;2.90;;;;;;;;;;4996751;28;20034;-79
2021/05/31 09:48:17;;;;;;;4.18;2.63;;;;;;;;;;4992609;28;20062;-79
2021/05/31 09:50:52;;;;;;;3.65;2.33;;;;;;;;;;4976085;28;20040;-79
2021/05/31 09:53:17;;;;;;;5.20;2.67;;;;;;;;;;4992144;28;20117;-79
2021/05/31 09:55:45;;;;;;;5.78;3.08;;;;;;;;;;4991563;28;20038;-79
2021/05/31 09:58:15;;;;;;;5.18;2.72;;;;;;;;;;4976171;28;20542;-80
2021/05/31 10:00:45;;;;;;;3.00;2.40;;;;;;;;;;4975825;28;20027;-79
2021/05/31 10:03:19;;;;;;;3.55;2.65;;;;;;;;;;4975334;28;20161;-79
2021/05/31 10:11:00;;;;;;;4.18;2.28;;;;;;;;;;5012402;28;20026;-79
2021/05/31 10:13:27;;;;;;;5.05;2.95;;;;;;;;;;4995659;28;20499;-79
2021/05/31 10:15:52;;;;;;;5.10;2.80;;;;;;;;;;4995363;28;20021;-79
2021/05/31 10:18:18;;;;;;;5.57;2.65;;;;;;;;;;4998226;28;20559;-81
2021/05/31 10:20:44;;;;;;;6.43;2.97;;;;;;;;;;4991764;28;20088;-79
2021/05/31 10:23:10;;;;;;;3.50;2.65;;;;;;;;;;4991458;28;20038;-81
2021/05/31 10:25:39;;;;;;;4.57;2.90;;;;;;;;;;4992109;28;20049;-79
2021/05/31 10:28:09;;;;;;;4.53;3.30;;;;;;;;;;4976192;28;20038;-80
2021/05/31 10:31:01;;;;;;;5.00;2.95;;;;;;;;;;4993697;28;20042;-79
2021/05/31 10:33:26;;;;;;;5.68;3.15;;;;;;;;;;5004145;28;20034;-79
2021/05/31 10:35:54;;;;;;;4.05;2.65;;;;;;;;;;4988189;28;20031;-79
2021/05/31 10:38:21;;;;;;;4.70;3.13;;;;;;;;;;5004588;28;20036;-79
2021/05/31 10:40:52;;;;;;;4.40;2.92;;;;;;;;;;4988623;28;20029;-80
2021/05/31 10:43:22;;;;;;;4.22;2.45;;;;;;;;;;4988243;28;20037;-80
2021/05/31 10:45:48;;;;;;;5.47;2.50;;;;;;;;;;4987700;28;20066;-79
2021/05/31 10:48:15;;;;;;;5.43;2.60;;;;;;;;;;4990712;28;20150;-80
2021/05/31 10:50:44;;;;;;;9.68;2.95;;;;;;;;;;4987509;28;20065;-79
2021/05/31 10:53:37;;;;;;;3.10;2.45;;;;;;;;;;4988165;28;20093;-76
2021/05/31 10:56:07;;;;;;;;;;;;;;;;;;4967992;28;20039;-80
2021/05/31 10:58:37;;;;;;;5.40;3.17;;;;;;;;;;5006721;28;20323;-79
2021/05/31 11:01:10;;;;;;;4.47;2.38;;;;;;;;;;4974303;28;20034;-77
2021/05/31 11:03:51;;;;;;;4.07;2.78;;;;;;;;;;4990914;28;20480;-78
2021/05/31 11:06:21;;;;;;;3.90;2.38;;;;;;;;;;5007902;28;20034;-79
2021/05/31 11:09:09;;;;;;;4.97;2.45;;;;;;;;;;5007528;28;20539;-79
2021/05/31 11:11:55;;;;;;;4.05;2.15;;;;;;;;;;5004678;28;20038;-79
2021/05/31 11:14:34;;;;;;;4.50;2.78;;;;;;;;;;4990878;28;20049;-78
2021/05/31 11:17:01;;;;;;;4.68;2.92;;;;;;;;;;4975075;28;20116;-77
2021/05/31 11:19:37;;;;;;;4.72;2.80;;;;;;;;;;4990945;28;20030;-78
2021/05/31 11:22:15;;;;;;;5.35;2.80;;;;;;;;;;4991963;28;20045;-78
2021/05/31 11:24:48;;;;;;;3.78;2.80;;;;;;;;;;5004819;28;20026;-78
2021/05/31 11:27:13;;;;;;;5.68;2.90;;;;;;;;;;5011656;28;20033;-77
2021/05/31 11:29:39;;;;;;;7.35;3.08;;;;;;;;;;5004160;28;20037;-77
2021/05/31 11:32:05;;;;;;;5.47;3.10;;;;;;;;;;4990947;28;20038;-77
2021/05/31 11:34:30;;;;;;;3.90;2.60;;;;;;;;;;5007253;28;20053;-78
2021/05/31 11:36:57;;;;;;;4.13;2.80;;;;;;;;;;5007865;28;20049;-78
2021/05/31 11:39:24;;;;;;;5.05;3.17;;;;;;;;;;4994317;28;20477;-78
2021/05/31 11:41:50;;;;;;;5.95;2.75;;;;;;;;;;5012602;28;20033;-78
2021/05/31 11:44:31;;;;;;;4.90;2.53;;;;;;;;;;4990475;28;20092;-78
2021/05/31 11:46:58;;;;;;;5.90;2.88;;;;;;;;;;5019276;28;20049;-77
2021/05/31 11:49:24;;;;;;;6.90;2.85;;;;;;;;;;4983740;28;20042;-78
2021/05/31 11:51:59;;;;;;;5.47;2.60;;;;;;;;;;5006438;28;20026;-77
2021/05/31 11:54:24;;;;;;;4.45;2.88;;;;;;;;;;4999475;28;20125;-77
2021/05/31 11:56:50;;;;;;;4.72;2.90;;;;;;;;;;4978401;28;20113;-77
2021/05/31 11:59:16;;;;;;;3.72;2.45;;;;;;;;;;5014299;28;20065;-78
2021/05/31 12:01:54;;;;;;;5.53;3.13;;;;;;;;;;4981823;28;20030;-78
2021/05/31 12:04:20;;;;;;;4.32;2.80;;;;;;;;;;4993951;28;20116;-77
2021/05/31 12:07:00;;;;;;;7.88;3.13;;;;;;;;;;4978206;28;20575;-78
2021/05/31 12:09:25;;;;;;;5.28;3.25;;;;;;;;;;4978221;28;20031;-78
2021/05/31 12:11:52;;;;;;;4.25;2.72;;;;;;;;;;5010033;28;20377;-78
2021/05/31 12:14:19;;;;;;;6.43;3.30;;;;;;;;;;5012915;28;20033;-78
2021/05/31 12:16:55;;;;;;;7.22;3.95;;;;;;;;;;4998281;28;20371;-78
2021/05/31 12:19:21;;;;;;;5.65;2.80;;;;;;;;;;4997579;28;20396;-78
2021/05/31 12:21:46;;;;;;;4.97;2.40;;;;;;;;;;5006280;28;20053;-77
2021/05/31 12:24:12;;;;;;;3.80;3.20;;;;;;;;;;4978139;28;20109;-77
2021/05/31 12:26:39;;;;;;;3.92;2.35;;;;;;;;;;4995421;28;20038;-77
2021/05/31 12:29:10;;;;;;;3.28;2.40;;;;;;;;;;4982106;28;20136;-78
2021/05/31 12:31:35;;;;;;;5.90;2.75;;;;;;;;;;4994554;28;20037;-78
2021/05/31 12:34:01;;;;;;;5.28;3.58;;;;;;;;;;5010370;28;20034;-78
2021/05/31 12:36:30;;;;;;;7.00;2.97;;;;;;;;;;5010286;28;20113;-77
2021/05/31 12:38:56;;;;;;;4.45;2.80;;;;;;;;;;4994048;28;20492;-77
2021/05/31 12:41:22;;;;;;;4.82;2.90;;;;;;;;;;4992965;28;20081;-77
2021/05/31 12:43:47;;;;;;;4.43;2.85;;;;;;;;;;4993597;28;20038;-78
2021/05/31 12:46:19;;;;;;;4.82;2.47;;;;;;;;;;4994252;28;20105;-77
2021/05/31 12:48:48;;;;;;;;;;;;;;;;;;4998241;28;20035;-77
2021/05/31 12:51:14;;;;;;;6.65;2.78;;;;;;;;;;5009701;28;19936;-77
2021/05/31 12:53:40;;;;;;;6.57;3.00;;;;;;;;;;4960221;28;20022;-77
2021/05/31 12:56:06;;;;;;;4.35;2.70;;;;;;;;;;4974164;28;20393;-78
2021/05/31 12:58:32;;;;;;;5.13;2.67;;;;;;;;;;4958255;28;20039;-77
2021/05/31 13:00:58;;;;;;;4.07;2.50;;;;;;;;;;4990277;28;20042;-78
2021/05/31 13:03:30;;;;;;;4.47;2.58;;;;;;;;;;4974121;28;20034;-78
2021/05/31 13:05:55;;;;;;;4.20;2.53;;;;;;;;;;4987956;28;20064;-78
2021/05/31 13:08:21;;;;;;;5.35;2.75;;;;;;;;;;4994622;28;20427;-78
2021/05/31 13:10:48;;;;;;;4.47;3.00;;;;;;;;;;5013042;28;20038;-77
2021/05/31 13:13:19;;;;;;;3.13;2.05;;;;;;;;;;4996877;28;20038;-77
2021/05/31 13:15:55;;;;;;;5.00;2.60;;;;;;;;;;4977693;28;20436;-78
2021/05/31 13:18:30;;;;;;;5.68;2.70;;;;;;;;;;5009709;28;20030;-78
2021/05/31 13:21:05;;;;;;;5.70;2.75;;;;;;;;;;5009207;28;20049;-78
2021/05/31 13:23:33;;;;;;;3.92;2.40;;;;;;;;;;4992763;28;20125;-78
2021/05/31 13:25:59;;;;;;;11.05;2.78;;;;;;;;;;5012390;28;20034;-77
2021/05/31 13:28:40;;;;;;;3.75;2.30;;;;;;;;;;4993024;28;20121;-78
2021/05/31 13:31:05;;;;;;;4.97;2.75;;;;;;;;;;4989099;28;20030;-78
2021/05/31 13:33:31;;;;;;;4.60;3.15;;;;;;;;;;4989934;28;20041;-78
2021/05/31 13:35:58;;;;;;;3.38;2.50;;;;;;;;;;4989523;28;20042;-78
2021/05/31 13:38:29;;;;;;;3.40;2.38;;;;;;;;;;4989358;28;20043;-78
2021/05/31 13:40:55;;;;;;;6.30;2.60;;;;;;;;;;5010034;28;20551;-79
2021/05/31 13:43:22;;;;;;;3.38;2.08;;;;;;;;;;4992763;28;20038;-78
2021/05/31 13:45:49;;;;;;;4.45;2.50;;;;;;;;;;4976411;28;20031;-78
2021/05/31 13:48:15;;;;;;;4.80;2.58;;;;;;;;;;4993045;28;20093;-78
2021/05/31 13:50:42;;;;;;;4.15;2.78;;;;;;;;;;4976519;28;20034;-78
2021/05/31 13:53:08;;;;;;;7.00;3.50;;;;;;;;;;4976625;28;20034;-79
2021/05/31 13:55:35;;;;;;;4.35;2.53;;;;;;;;;;4992492;28;20046;-78
2021/05/31 13:58:00;;;;;;;6.40;2.50;;;;;;;;;;4974972;28;20153;-78
2021/05/31 14:00:26;;;;;;;4.70;2.60;;;;;;;;;;5017333;28;20121;-78
2021/05/31 14:02:56;;;;;;;4.45;2.53;;;;;;;;;;5015227;28;20041;-77
2021/05/31 14:05:26;;;;;;;7.57;3.42;;;;;;;;;;4998980;28;20034;-77
2021/05/31 14:07:52;;;;;;;4.40;2.22;;;;;;;;;;4992104;28;20050;-77
2021/05/31 14:10:17;;;;;;;4.13;2.60;;;;;;;;;;5008712;28;20034;-78
2021/05/31 14:12:43;;;;;;;5.32;3.20;;;;;;;;;;5008679;28;20385;-78
2021/05/31 14:15:09;;;;;;;5.38;2.97;;;;;;;;;;5006972;28;20046;-78
2021/05/31 14:17:35;;;;;;;5.47;2.55;;;;;;;;;;4989010;28;20512;-78
2021/05/31 14:20:02;;;;;;;9.40;3.72;;;;;;;;;;4972504;28;20046;-78
2021/05/31 14:22:28;;;;;;;4.00;2.42;;;;;;;;;;4988519;28;20027;-78
2021/05/31 14:24:53;;;;;;;7.68;5.25;;;;;;;;;;4988883;28;20485;-78
2021/05/31 14:27:19;;;;;;;16.75;13.30;;;;;;;;;;4995668;28;20038;-78
2021/05/31 14:29:45;;;;;;;15.52;12.77;;;;;;;;;;4991802;28;20039;-78
2021/05/31 14:32:11;;;;;;;9.13;7.28;;;;;;;;;;4992023;28;20026;-77
2021/05/31 14:34:37;;;;;;;6.80;5.35;;;;;;;;;;4991141;28;20415;-77
2021/05/31 14:37:03;;;;;;;6.25;3.70;;;;;;;;;;4983519;28;20038;-78
2021/05/31 14:39:28;;;;;;;6.70;2.95;;;;;;;;;;4955530;28;20116;-78
2021/05/31 14:41:54;;;;;;;4.63;3.08;;;;;;;;;;4990581;28;20117;-78
2021/05/31 14:44:19;;;;;;;4.32;2.67;;;;;;;;;;5010280;28;20037;-77
2021/05/31 14:46:45;;;;;;;6.18;3.10;;;;;;;;;;5011056;28;20054;-78
2021/05/31 14:49:10;;;;;;;6.35;3.25;;;;;;;;;;5000401;28;20034;-78
2021/05/31 14:51:36;;;;;;;5.90;3.33;;;;;;;;;;4958158;28;20046;-78
2021/05/31 14:54:01;;;;;;;5.82;3.17;;;;;;;;;;4991070;28;20042;-78
2021/05/31 14:56:27;;;;;;;4.63;2.72;;;;;;;;;;4990507;28;20031;-78
2021/05/31 14:58:52;;;;;;;5.00;3.97;;;;;;;;;;4990917;28;20056;-77
2021/05/31 15:01:18;;;;;;;3.53;2.83;;;;;;;;;;4991228;28;20041;-78
2021/05/31 15:03:43;;;;;;;5.57;3.30;;;;;;;;;;4990012;28;20125;-77
2021/05/31 15:06:09;;;;;;;4.43;2.65;;;;;;;;;;4990872;28;20813;-78
2021/05/31 15:08:35;;;;;;;4.88;2.72;;;;;;;;;;4991076;28;20038;-77